sensor_id;sensor_type;location;lat;lon;timestamp;P1;durP1;ratioP1;P2;durP2;ratioP2
7108;SDS011;29079;41.930;25.558;2023-08-12T00:02:53;5.53;;;3.60;;
7108;SDS011;29079;41.930;25.558;2023-08-12T00:05:41;5.72;;;4.05;;
7108;SDS011;29079;41.930;25.558;2023-08-12T00:08:29;4.75;;;4.25;;
7108;SDS011;29079;41.930;25.558;2023-08-12T00:11:18;4.20;;;3.80;;
7108;SDS011;29079;41.930;25.558;2023-08-12T00:14:06;4.20;;;3.80;;
7108;SDS011;29079;41.930;25.558;2023-08-12T00:16:54;6.68;;;3.58;;
7108;SDS011;29079;41.930;25.558;2023-08-12T00:19:42;7.38;;;3.95;;
7108;SDS011;29079;41.930;25.558;2023-08-12T00:22:30;5.20;;;3.58;;
7108;SDS011;29079;41.930;25.558;2023-08-12T00:25:17;6.13;;;3.22;;
7108;SDS011;29079;41.930;25.558;2023-08-12T00:28:07;4.35;;;3.72;;
7108;SDS011;29079;41.930;25.558;2023-08-12T00:30:55;4.15;;;3.25;;
7108;SDS011;29079;41.930;25.558;2023-08-12T00:33:42;3.38;;;3.08;;
7108;SDS011;29079;41.930;25.558;2023-08-12T00:36:30;4.55;;;3.47;;
7108;SDS011;29079;41.930;25.558;2023-08-12T00:39:18;3.88;;;3.50;;
7108;SDS011;29079;41.930;25.558;2023-08-12T00:42:06;4.00;;;3.63;;
7108;SDS011;29079;41.930;25.558;2023-08-12T00:44:55;3.60;;;3.30;;
7108;SDS011;29079;41.930;25.558;2023-08-12T00:47:43;5.78;;;3.63;;
7108;SDS011;29079;41.930;25.558;2023-08-12T00:50:30;5.13;;;3.78;;
7108;SDS011;29079;41.930;25.558;2023-08-12T00:53:19;5.05;;;4.18;;
7108;SDS011;29079;41.930;25.558;2023-08-12T00:56:08;5.40;;;3.60;;
7108;SDS011;29079;41.930;25.558;2023-08-12T00:58:56;5.40;;;4.18;;
7108;SDS011;29079;41.930;25.558;2023-08-12T01:01:46;4.13;;;3.72;;
7108;SDS011;29079;41.930;25.558;2023-08-12T01:04:34;5.57;;;3.80;;
7108;SDS011;29079;41.930;25.558;2023-08-12T01:07:22;4.22;;;3.83;;
7108;SDS011;29079;41.930;25.558;2023-08-12T01:10:10;5.20;;;3.42;;
7108;SDS011;29079;41.930;25.558;2023-08-12T01:13:03;5.25;;;3.75;;
7108;SDS011;29079;41.930;25.558;2023-08-12T01:15:57;5.13;;;4.05;;
7108;SDS011;29079;41.930;25.558;2023-08-12T01:18:50;6.63;;;4.25;;
7108;SDS011;29079;41.930;25.558;2023-08-12T01:21:40;4.18;;;3.88;;
7108;SDS011;29079;41.930;25.558;2023-08-12T01:24:35;4.60;;;4.10;;
7108;SDS011;29079;41.930;25.558;2023-08-12T01:27:23;6.35;;;4.57;;
7108;SDS011;29079;41.930;25.558;2023-08-12T01:30:11;6.10;;;4.50;;
7108;SDS011;29079;41.930;25.558;2023-08-12T01:33:01;6.00;;;3.80;;
7108;SDS011;29079;41.930;25.558;2023-08-12T01:35:55;4.30;;;3.75;;
7108;SDS011;29079;41.930;25.558;2023-08-12T01:38:47;7.32;;;4.32;;
7108;SDS011;29079;41.930;25.558;2023-08-12T01:41:39;5.00;;;4.40;;
7108;SDS011;29079;41.930;25.558;2023-08-12T01:44:27;6.90;;;5.95;;
7108;SDS011;29079;41.930;25.558;2023-08-12T01:47:15;5.63;;;4.55;;
7108;SDS011;29079;41.930;25.558;2023-08-12T01:50:03;6.03;;;4.57;;
7108;SDS011;29079;41.930;25.558;2023-08-12T01:52:52;4.40;;;3.92;;
7108;SDS011;29079;41.930;25.558;2023-08-12T01:55:42;4.57;;;3.90;;
7108;SDS011;29079;41.930;25.558;2023-08-12T01:58:32;5.47;;;4.88;;
7108;SDS011;29079;41.930;25.558;2023-08-12T02:01:20;5.50;;;4.53;;
7108;SDS011;29079;41.930;25.558;2023-08-12T02:04:07;5.03;;;4.47;;
7108;SDS011;29079;41.930;25.558;2023-08-12T02:06:55;4.65;;;4.20;;
7108;SDS011;29079;41.930;25.558;2023-08-12T02:09:43;5.47;;;4.53;;
7108;SDS011;29079;41.930;25.558;2023-08-12T02:12:31;4.63;;;4.22;;
7108;SDS011;29079;41.930;25.558;2023-08-12T02:15:20;7.47;;;3.83;;
7108;SDS011;29079;41.930;25.558;2023-08-12T02:18:08;5.90;;;4.20;;
7108;SDS011;29079;41.930;25.558;2023-08-12T02:20:56;5.93;;;3.85;;
7108;SDS011;29079;41.930;25.558;2023-08-12T02:23:43;4.68;;;3.55;;
7108;SDS011;29079;41.930;25.558;2023-08-12T02:26:31;4.53;;;4.13;;
7108;SDS011;29079;41.930;25.558;2023-08-12T02:29:19;4.13;;;3.72;;
7108;SDS011;29079;41.930;25.558;2023-08-12T02:32:08;8.00;;;4.43;;
7108;SDS011;29079;41.930;25.558;2023-08-12T02:34:56;7.93;;;5.03;;
7108;SDS011;29079;41.930;25.558;2023-08-12T02:37:44;4.50;;;4.10;;
7108;SDS011;29079;41.930;25.558;2023-08-12T02:40:31;5.05;;;4.50;;
7108;SDS011;29079;41.930;25.558;2023-08-12T02:43:19;7.30;;;3.75;;
7108;SDS011;29079;41.930;25.558;2023-08-12T02:46:07;8.18;;;4.70;;
7108;SDS011;29079;41.930;25.558;2023-08-12T02:48:56;6.15;;;4.30;;
7108;SDS011;29079;41.930;25.558;2023-08-12T02:51:44;6.85;;;4.10;;
7108;SDS011;29079;41.930;25.558;2023-08-12T02:54:31;5.03;;;4.63;;
7108;SDS011;29079;41.930;25.558;2023-08-12T02:57:19;5.50;;;3.50;;
7108;SDS011;29079;41.930;25.558;2023-08-12T03:00:07;5.32;;;4.60;;
7108;SDS011;29079;41.930;25.558;2023-08-12T03:02:56;5.68;;;4.75;;
7108;SDS011;29079;41.930;25.558;2023-08-12T03:05:46;6.70;;;4.90;;
7108;SDS011;29079;41.930;25.558;2023-08-12T03:08:34;7.07;;;4.45;;
7108;SDS011;29079;41.930;25.558;2023-08-12T03:11:22;6.38;;;4.32;;
7108;SDS011;29079;41.930;25.558;2023-08-12T03:14:10;4.90;;;4.50;;
7108;SDS011;29079;41.930;25.558;2023-08-12T03:16:58;5.57;;;4.30;;
7108;SDS011;29079;41.930;25.558;2023-08-12T03:19:45;6.60;;;5.68;;
7108;SDS011;29079;41.930;25.558;2023-08-12T03:22:34;10.02;;;4.65;;
7108;SDS011;29079;41.930;25.558;2023-08-12T03:25:22;4.50;;;4.10;;
7108;SDS011;29079;41.930;25.558;2023-08-12T03:28:10;6.30;;;4.38;;
7108;SDS011;29079;41.930;25.558;2023-08-12T03:30:58;6.78;;;5.38;;
7108;SDS011;29079;41.930;25.558;2023-08-12T03:33:46;8.10;;;4.57;;
7108;SDS011;29079;41.930;25.558;2023-08-12T03:36:33;4.80;;;4.10;;
7108;SDS011;29079;41.930;25.558;2023-08-12T03:39:23;5.75;;;4.55;;
7108;SDS011;29079;41.930;25.558;2023-08-12T03:42:11;4.30;;;3.65;;
7108;SDS011;29079;41.930;25.558;2023-08-12T03:44:58;6.32;;;5.00;;
7108;SDS011;29079;41.930;25.558;2023-08-12T03:47:46;5.57;;;4.55;;
7108;SDS011;29079;41.930;25.558;2023-08-12T03:50:34;6.40;;;4.35;;
7108;SDS011;29079;41.930;25.558;2023-08-12T03:53:22;8.35;;;5.32;;
7108;SDS011;29079;41.930;25.558;2023-08-12T03:56:11;12.90;;;7.53;;
7108;SDS011;29079;41.930;25.558;2023-08-12T03:59:01;11.20;;;6.05;;
7108;SDS011;29079;41.930;25.558;2023-08-12T04:01:49;5.95;;;5.20;;
7108;SDS011;29079;41.930;25.558;2023-08-12T04:04:36;6.18;;;5.10;;
7108;SDS011;29079;41.930;25.558;2023-08-12T04:07:24;7.47;;;5.25;;
7108;SDS011;29079;41.930;25.558;2023-08-12T04:10:13;8.70;;;6.47;;
7108;SDS011;29079;41.930;25.558;2023-08-12T04:13:02;8.88;;;6.75;;
7108;SDS011;29079;41.930;25.558;2023-08-12T04:15:50;9.40;;;5.70;;
7108;SDS011;29079;41.930;25.558;2023-08-12T04:18:39;9.98;;;6.53;;
7108;SDS011;29079;41.930;25.558;2023-08-12T04:21:27;14.68;;;7.38;;
7108;SDS011;29079;41.930;25.558;2023-08-12T04:24:15;14.77;;;8.30;;
7108;SDS011;29079;41.930;25.558;2023-08-12T04:27:03;9.85;;;6.72;;
7108;SDS011;29079;41.930;25.558;2023-08-12T04:29:52;10.00;;;6.40;;
7108;SDS011;29079;41.930;25.558;2023-08-12T04:32:40;13.65;;;7.50;;
7108;SDS011;29079;41.930;25.558;2023-08-12T04:35:30;9.63;;;6.45;;
7108;SDS011;29079;41.930;25.558;2023-08-12T04:38:18;11.23;;;6.50;;
7108;SDS011;29079;41.930;25.558;2023-08-12T04:41:06;10.73;;;6.70;;
7108;SDS011;29079;41.930;25.558;2023-08-12T04:43:54;8.98;;;5.63;;
7108;SDS011;29079;41.930;25.558;2023-08-12T04:46:43;16.33;;;6.22;;
7108;SDS011;29079;41.930;25.558;2023-08-12T04:49:31;7.57;;;6.00;;
7108;SDS011;29079;41.930;25.558;2023-08-12T04:52:18;21.13;;;5.70;;
7108;SDS011;29079;41.930;25.558;2023-08-12T04:55:08;16.20;;;7.25;;
7108;SDS011;29079;41.930;25.558;2023-08-12T04:57:57;11.43;;;5.82;;
7108;SDS011;29079;41.930;25.558;2023-08-12T05:00:45;10.35;;;5.80;;
7108;SDS011;29079;41.930;25.558;2023-08-12T05:03:34;11.18;;;7.38;;
7108;SDS011;29079;41.930;25.558;2023-08-12T05:06:22;12.75;;;7.10;;
7108;SDS011;29079;41.930;25.558;2023-08-12T05:09:10;10.60;;;6.32;;
7108;SDS011;29079;41.930;25.558;2023-08-12T05:11:58;10.93;;;5.80;;
7108;SDS011;29079;41.930;25.558;2023-08-12T05:14:46;9.15;;;6.30;;
7108;SDS011;29079;41.930;25.558;2023-08-12T05:17:33;7.47;;;6.57;;
7108;SDS011;29079;41.930;25.558;2023-08-12T05:20:23;9.52;;;6.07;;
7108;SDS011;29079;41.930;25.558;2023-08-12T05:23:11;10.73;;;6.05;;
7108;SDS011;29079;41.930;25.558;2023-08-12T05:25:58;7.25;;;5.68;;
7108;SDS011;29079;41.930;25.558;2023-08-12T05:28:46;8.43;;;6.40;;
7108;SDS011;29079;41.930;25.558;2023-08-12T05:31:34;8.05;;;4.97;;
7108;SDS011;29079;41.930;25.558;2023-08-12T05:34:22;17.27;;;9.02;;
7108;SDS011;29079;41.930;25.558;2023-08-12T05:37:11;9.70;;;6.93;;
7108;SDS011;29079;41.930;25.558;2023-08-12T05:39:59;10.23;;;5.30;;
7108;SDS011;29079;41.930;25.558;2023-08-12T05:42:47;10.40;;;5.00;;
7108;SDS011;29079;41.930;25.558;2023-08-12T05:45:35;9.25;;;5.68;;
7108;SDS011;29079;41.930;25.558;2023-08-12T05:48:22;7.95;;;5.10;;
7108;SDS011;29079;41.930;25.558;2023-08-12T05:51:10;8.20;;;4.93;;
7108;SDS011;29079;41.930;25.558;2023-08-12T05:53:59;8.30;;;4.90;;
7108;SDS011;29079;41.930;25.558;2023-08-12T05:56:47;5.72;;;3.97;;
7108;SDS011;29079;41.930;25.558;2023-08-12T05:59:35;5.35;;;4.70;;
7108;SDS011;29079;41.930;25.558;2023-08-12T06:02:23;6.47;;;4.68;;
7108;SDS011;29079;41.930;25.558;2023-08-12T06:05:11;10.82;;;5.43;;
7108;SDS011;29079;41.930;25.558;2023-08-12T06:07:58;6.55;;;5.15;;
7108;SDS011;29079;41.930;25.558;2023-08-12T06:10:47;5.63;;;4.30;;
7108;SDS011;29079;41.930;25.558;2023-08-12T06:13:35;6.55;;;4.57;;
7108;SDS011;29079;41.930;25.558;2023-08-12T06:16:23;6.00;;;5.07;;
7108;SDS011;29079;41.930;25.558;2023-08-12T06:19:11;7.25;;;5.13;;
7108;SDS011;29079;41.930;25.558;2023-08-12T06:21:59;7.50;;;5.78;;
7108;SDS011;29079;41.930;25.558;2023-08-12T06:24:46;15.48;;;9.80;;
7108;SDS011;29079;41.930;25.558;2023-08-12T06:27:36;5.63;;;4.82;;
7108;SDS011;29079;41.930;25.558;2023-08-12T06:30:23;9.60;;;4.88;;
7108;SDS011;29079;41.930;25.558;2023-08-12T06:33:11;5.80;;;4.20;;
7108;SDS011;29079;41.930;25.558;2023-08-12T06:35:59;6.53;;;4.25;;
7108;SDS011;29079;41.930;25.558;2023-08-12T06:38:47;5.68;;;4.63;;
7108;SDS011;29079;41.930;25.558;2023-08-12T06:41:34;6.20;;;4.57;;
7108;SDS011;29079;41.930;25.558;2023-08-12T06:44:24;4.20;;;3.80;;
7108;SDS011;29079;41.930;25.558;2023-08-12T06:47:12;6.68;;;4.95;;
7108;SDS011;29079;41.930;25.558;2023-08-12T06:49:59;5.43;;;4.20;;
7108;SDS011;29079;41.930;25.558;2023-08-12T06:52:48;6.90;;;4.47;;
7108;SDS011;29079;41.930;25.558;2023-08-12T06:55:35;8.70;;;5.18;;
7108;SDS011;29079;41.930;25.558;2023-08-12T06:58:23;6.55;;;3.92;;
7108;SDS011;29079;41.930;25.558;2023-08-12T07:01:13;6.50;;;4.18;;
7108;SDS011;29079;41.930;25.558;2023-08-12T07:04:01;5.10;;;4.43;;
7108;SDS011;29079;41.930;25.558;2023-08-12T07:06:49;4.47;;;4.10;;
7108;SDS011;29079;41.930;25.558;2023-08-12T07:09:36;5.93;;;4.57;;
7108;SDS011;29079;41.930;25.558;2023-08-12T07:12:24;6.30;;;4.82;;
7108;SDS011;29079;41.930;25.558;2023-08-12T07:15:12;9.50;;;4.13;;
7108;SDS011;29079;41.930;25.558;2023-08-12T07:18:02;4.25;;;3.85;;
7108;SDS011;29079;41.930;25.558;2023-08-12T07:20:50;4.00;;;3.53;;
7108;SDS011;29079;41.930;25.558;2023-08-12T07:23:38;3.90;;;3.40;;
7108;SDS011;29079;41.930;25.558;2023-08-12T07:26:34;5.25;;;3.42;;
7108;SDS011;29079;41.930;25.558;2023-08-12T07:29:22;4.10;;;3.63;;
7108;SDS011;29079;41.930;25.558;2023-08-12T07:32:10;4.35;;;3.33;;
7108;SDS011;29079;41.930;25.558;2023-08-12T07:35:00;4.93;;;3.90;;
7108;SDS011;29079;41.930;25.558;2023-08-12T07:37:48;7.25;;;4.05;;
7108;SDS011;29079;41.930;25.558;2023-08-12T07:40:36;6.78;;;3.80;;
7108;SDS011;29079;41.930;25.558;2023-08-12T07:43:27;5.78;;;3.67;;
7108;SDS011;29079;41.930;25.558;2023-08-12T07:46:15;4.38;;;3.97;;
7108;SDS011;29079;41.930;25.558;2023-08-12T07:49:03;5.13;;;3.63;;
7108;SDS011;29079;41.930;25.558;2023-08-12T07:51:52;5.93;;;3.80;;
7108;SDS011;29079;41.930;25.558;2023-08-12T07:54:40;10.27;;;4.28;;
7108;SDS011;29079;41.930;25.558;2023-08-12T07:57:28;7.20;;;3.63;;
7108;SDS011;29079;41.930;25.558;2023-08-12T08:00:15;6.72;;;4.13;;
7108;SDS011;29079;41.930;25.558;2023-08-12T08:03:04;8.60;;;5.10;;
7108;SDS011;29079;41.930;25.558;2023-08-12T08:05:52;8.57;;;4.15;;
7108;SDS011;29079;41.930;25.558;2023-08-12T08:08:41;5.63;;;3.75;;
7108;SDS011;29079;41.930;25.558;2023-08-12T08:11:29;4.65;;;4.22;;
7108;SDS011;29079;41.930;25.558;2023-08-12T08:14:18;4.38;;;3.97;;
7108;SDS011;29079;41.930;25.558;2023-08-12T08:17:06;4.72;;;3.97;;
7108;SDS011;29079;41.930;25.558;2023-08-12T08:19:54;5.32;;;3.65;;
7108;SDS011;29079;41.930;25.558;2023-08-12T08:22:41;7.10;;;4.35;;
7108;SDS011;29079;41.930;25.558;2023-08-12T08:25:31;4.10;;;3.80;;
7108;SDS011;29079;41.930;25.558;2023-08-12T08:28:19;4.20;;;3.80;;
7108;SDS011;29079;41.930;25.558;2023-08-12T08:31:06;9.77;;;4.18;;
7108;SDS011;29079;41.930;25.558;2023-08-12T08:33:55;8.77;;;4.93;;
7108;SDS011;29079;41.930;25.558;2023-08-12T08:36:43;7.55;;;4.47;;
7108;SDS011;29079;41.930;25.558;2023-08-12T08:39:30;8.77;;;4.50;;
7108;SDS011;29079;41.930;25.558;2023-08-12T08:42:20;4.53;;;3.80;;
7108;SDS011;29079;41.930;25.558;2023-08-12T08:45:10;5.38;;;3.90;;
7108;SDS011;29079;41.930;25.558;2023-08-12T08:48:00;4.15;;;3.80;;
7108;SDS011;29079;41.930;25.558;2023-08-12T08:50:49;6.07;;;4.43;;
7108;SDS011;29079;41.930;25.558;2023-08-12T08:53:39;6.53;;;4.32;;
7108;SDS011;29079;41.930;25.558;2023-08-12T08:56:27;10.07;;;4.10;;
7108;SDS011;29079;41.930;25.558;2023-08-12T08:59:17;11.15;;;4.70;;
7108;SDS011;29079;41.930;25.558;2023-08-12T09:02:07;48.10;;;7.47;;
7108;SDS011;29079;41.930;25.558;2023-08-12T09:05:01;11.25;;;4.07;;
7108;SDS011;29079;41.930;25.558;2023-08-12T09:07:49;12.60;;;4.72;;
7108;SDS011;29079;41.930;25.558;2023-08-12T09:10:38;4.90;;;4.38;;
7108;SDS011;29079;41.930;25.558;2023-08-12T09:13:27;6.25;;;3.92;;
7108;SDS011;29079;41.930;25.558;2023-08-12T09:16:17;4.43;;;3.70;;
7108;SDS011;29079;41.930;25.558;2023-08-12T09:19:04;6.30;;;3.95;;
7108;SDS011;29079;41.930;25.558;2023-08-12T09:21:52;6.78;;;3.50;;
7108;SDS011;29079;41.930;25.558;2023-08-12T09:24:41;6.20;;;3.70;;
7108;SDS011;29079;41.930;25.558;2023-08-12T09:27:30;4.15;;;3.67;;
7108;SDS011;29079;41.930;25.558;2023-08-12T09:30:18;3.35;;;3.05;;
7108;SDS011;29079;41.930;25.558;2023-08-12T09:33:09;4.18;;;3.67;;
7108;SDS011;29079;41.930;25.558;2023-08-12T09:35:57;5.00;;;4.00;;
7108;SDS011;29079;41.930;25.558;2023-08-12T09:38:45;4.18;;;3.50;;
7108;SDS011;29079;41.930;25.558;2023-08-12T09:41:34;10.55;;;4.03;;
7108;SDS011;29079;41.930;25.558;2023-08-12T09:44:22;7.28;;;3.35;;
7108;SDS011;29079;41.930;25.558;2023-08-12T09:47:10;3.92;;;3.33;;
7108;SDS011;29079;41.930;25.558;2023-08-12T09:50:00;4.45;;;3.70;;
7108;SDS011;29079;41.930;25.558;2023-08-12T09:52:49;3.80;;;3.28;;
7108;SDS011;29079;41.930;25.558;2023-08-12T09:55:37;8.60;;;3.97;;
7108;SDS011;29079;41.930;25.558;2023-08-12T09:58:27;3.92;;;2.97;;
7108;SDS011;29079;41.930;25.558;2023-08-12T10:01:18;5.93;;;3.13;;
7108;SDS011;29079;41.930;25.558;2023-08-12T10:04:08;4.03;;;3.63;;
7108;SDS011;29079;41.930;25.558;2023-08-12T10:07:00;6.25;;;3.35;;
7108;SDS011;29079;41.930;25.558;2023-08-12T10:09:50;5.18;;;3.53;;
7108;SDS011;29079;41.930;25.558;2023-08-12T10:12:38;5.88;;;3.45;;
7108;SDS011;29079;41.930;25.558;2023-08-12T10:15:26;4.57;;;3.05;;
7108;SDS011;29079;41.930;25.558;2023-08-12T10:18:14;4.35;;;3.95;;
7108;SDS011;29079;41.930;25.558;2023-08-12T10:21:02;5.78;;;3.28;;
7108;SDS011;29079;41.930;25.558;2023-08-12T10:23:52;3.13;;;2.83;;
7108;SDS011;29079;41.930;25.558;2023-08-12T10:26:41;3.63;;;3.17;;
7108;SDS011;29079;41.930;25.558;2023-08-12T10:29:29;4.30;;;2.47;;
7108;SDS011;29079;41.930;25.558;2023-08-12T10:32:17;4.43;;;2.58;;
7108;SDS011;29079;41.930;25.558;2023-08-12T10:35:06;5.03;;;3.28;;
7108;SDS011;29079;41.930;25.558;2023-08-12T10:37:54;5.97;;;3.00;;
7108;SDS011;29079;41.930;25.558;2023-08-12T10:40:44;10.32;;;8.02;;
7108;SDS011;29079;41.930;25.558;2023-08-12T10:43:39;9.38;;;4.32;;
7108;SDS011;29079;41.930;25.558;2023-08-12T10:46:36;8.02;;;5.03;;
7108;SDS011;29079;41.930;25.558;2023-08-12T10:49:25;8.68;;;7.15;;
7108;SDS011;29079;41.930;25.558;2023-08-12T10:52:25;8.13;;;6.78;;
7108;SDS011;29079;41.930;25.558;2023-08-12T10:55:18;6.18;;;5.00;;
7108;SDS011;29079;41.930;25.558;2023-08-12T10:58:09;5.20;;;3.88;;
7108;SDS011;29079;41.930;25.558;2023-08-12T11:00:57;6.75;;;3.15;;
7108;SDS011;29079;41.930;25.558;2023-08-12T11:03:45;3.60;;;3.30;;
7108;SDS011;29079;41.930;25.558;2023-08-12T11:06:40;4.70;;;2.85;;
7108;SDS011;29079;41.930;25.558;2023-08-12T11:09:30;4.45;;;4.00;;
7108;SDS011;29079;41.930;25.558;2023-08-12T11:12:18;8.57;;;7.25;;
7108;SDS011;29079;41.930;25.558;2023-08-12T11:15:15;15.02;;;11.15;;
7108;SDS011;29079;41.930;25.558;2023-08-12T11:18:05;9.02;;;7.93;;
7108;SDS011;29079;41.930;25.558;2023-08-12T11:20:53;10.43;;;4.15;;
7108;SDS011;29079;41.930;25.558;2023-08-12T11:23:43;7.93;;;5.28;;
7108;SDS011;29079;41.930;25.558;2023-08-12T11:26:31;4.95;;;3.92;;
7108;SDS011;29079;41.930;25.558;2023-08-12T11:29:19;5.38;;;3.47;;
7108;SDS011;29079;41.930;25.558;2023-08-12T11:32:08;4.47;;;3.22;;
7108;SDS011;29079;41.930;25.558;2023-08-12T11:34:57;3.92;;;3.35;;
7108;SDS011;29079;41.930;25.558;2023-08-12T11:37:45;4.60;;;3.55;;
7108;SDS011;29079;41.930;25.558;2023-08-12T11:40:34;5.00;;;3.85;;
7108;SDS011;29079;41.930;25.558;2023-08-12T11:43:22;7.68;;;3.53;;
7108;SDS011;29079;41.930;25.558;2023-08-12T11:46:10;3.80;;;3.30;;
7108;SDS011;29079;41.930;25.558;2023-08-12T11:48:59;7.90;;;4.45;;
7108;SDS011;29079;41.930;25.558;2023-08-12T11:51:47;11.70;;;9.75;;
7108;SDS011;29079;41.930;25.558;2023-08-12T11:54:36;12.80;;;11.43;;
7108;SDS011;29079;41.930;25.558;2023-08-12T11:57:23;8.07;;;6.25;;
7108;SDS011;29079;41.930;25.558;2023-08-12T12:00:13;10.60;;;5.70;;
7108;SDS011;29079;41.930;25.558;2023-08-12T12:03:02;9.48;;;5.18;;
7108;SDS011;29079;41.930;25.558;2023-08-12T12:05:55;7.18;;;4.70;;
7108;SDS011;29079;41.930;25.558;2023-08-12T12:08:43;6.35;;;5.15;;
7108;SDS011;29079;41.930;25.558;2023-08-12T12:11:31;7.68;;;4.63;;
7108;SDS011;29079;41.930;25.558;2023-08-12T12:14:20;6.65;;;5.80;;
7108;SDS011;29079;41.930;25.558;2023-08-12T12:17:08;6.78;;;4.97;;
7108;SDS011;29079;41.930;25.558;2023-08-12T12:19:59;9.13;;;8.13;;
7108;SDS011;29079;41.930;25.558;2023-08-12T12:22:49;11.52;;;9.85;;
7108;SDS011;29079;41.930;25.558;2023-08-12T12:25:36;7.82;;;6.60;;
7108;SDS011;29079;41.930;25.558;2023-08-12T12:28:25;8.07;;;6.20;;
7108;SDS011;29079;41.930;25.558;2023-08-12T12:31:13;7.82;;;4.22;;
7108;SDS011;29079;41.930;25.558;2023-08-12T12:34:01;6.68;;;5.22;;
7108;SDS011;29079;41.930;25.558;2023-08-12T12:36:50;4.85;;;4.18;;
7108;SDS011;29079;41.930;25.558;2023-08-12T12:39:39;5.30;;;4.53;;
7108;SDS011;29079;41.930;25.558;2023-08-12T12:42:27;5.57;;;4.13;;
7108;SDS011;29079;41.930;25.558;2023-08-12T12:45:15;5.75;;;3.83;;
7108;SDS011;29079;41.930;25.558;2023-08-12T12:48:03;5.53;;;4.15;;
7108;SDS011;29079;41.930;25.558;2023-08-12T12:50:52;4.50;;;3.75;;
7108;SDS011;29079;41.930;25.558;2023-08-12T12:53:40;5.38;;;4.00;;
7108;SDS011;29079;41.930;25.558;2023-08-12T12:56:29;5.85;;;4.47;;
7108;SDS011;29079;41.930;25.558;2023-08-12T12:59:17;7.40;;;3.53;;
7108;SDS011;29079;41.930;25.558;2023-08-12T13:02:05;3.85;;;3.55;;
7108;SDS011;29079;41.930;25.558;2023-08-12T13:04:54;8.05;;;4.00;;
7108;SDS011;29079;41.930;25.558;2023-08-12T13:07:41;5.63;;;3.42;;
7108;SDS011;29079;41.930;25.558;2023-08-12T13:10:29;8.40;;;4.53;;
7108;SDS011;29079;41.930;25.558;2023-08-12T13:13:19;4.22;;;3.83;;
7108;SDS011;29079;41.930;25.558;2023-08-12T13:16:06;4.35;;;3.95;;
7108;SDS011;29079;41.930;25.558;2023-08-12T13:18:55;4.28;;;3.88;;
7108;SDS011;29079;41.930;25.558;2023-08-12T13:21:44;3.60;;;3.28;;
7108;SDS011;29079;41.930;25.558;2023-08-12T13:24:32;4.38;;;3.55;;
7108;SDS011;29079;41.930;25.558;2023-08-12T13:27:20;4.45;;;3.20;;
7108;SDS011;29079;41.930;25.558;2023-08-12T13:30:11;6.13;;;3.30;;
7108;SDS011;29079;41.930;25.558;2023-08-12T13:32:59;5.15;;;3.28;;
7108;SDS011;29079;41.930;25.558;2023-08-12T13:35:47;5.03;;;3.35;;
7108;SDS011;29079;41.930;25.558;2023-08-12T13:38:35;8.05;;;4.10;;
7108;SDS011;29079;41.930;25.558;2023-08-12T13:41:22;3.75;;;3.40;;
7108;SDS011;29079;41.930;25.558;2023-08-12T13:44:10;4.07;;;3.35;;
7108;SDS011;29079;41.930;25.558;2023-08-12T13:46:59;11.20;;;8.82;;
7108;SDS011;29079;41.930;25.558;2023-08-12T13:49:47;11.93;;;9.13;;
7108;SDS011;29079;41.930;25.558;2023-08-12T13:52:35;15.63;;;13.27;;
7108;SDS011;29079;41.930;25.558;2023-08-12T13:55:23;32.42;;;27.45;;
7108;SDS011;29079;41.930;25.558;2023-08-12T13:58:11;52.00;;;35.85;;
7108;SDS011;29079;41.930;25.558;2023-08-12T14:00:59;11.25;;;7.22;;
7108;SDS011;29079;41.930;25.558;2023-08-12T14:03:48;16.40;;;10.10;;
7108;SDS011;29079;41.930;25.558;2023-08-12T14:06:36;33.00;;;24.15;;
7108;SDS011;29079;41.930;25.558;2023-08-12T14:09:26;17.92;;;13.93;;
7108;SDS011;29079;41.930;25.558;2023-08-12T14:12:14;17.25;;;10.70;;
7108;SDS011;29079;41.930;25.558;2023-08-12T14:15:02;10.18;;;8.77;;
7108;SDS011;29079;41.930;25.558;2023-08-12T14:17:50;6.00;;;5.40;;
7108;SDS011;29079;41.930;25.558;2023-08-12T14:20:39;6.50;;;5.80;;
7108;SDS011;29079;41.930;25.558;2023-08-12T14:23:27;7.65;;;5.00;;
7108;SDS011;29079;41.930;25.558;2023-08-12T14:26:15;7.10;;;4.82;;
7108;SDS011;29079;41.930;25.558;2023-08-12T14:29:03;7.43;;;6.53;;
7108;SDS011;29079;41.930;25.558;2023-08-12T14:31:51;6.72;;;5.68;;
7108;SDS011;29079;41.930;25.558;2023-08-12T14:34:39;7.75;;;5.53;;
7108;SDS011;29079;41.930;25.558;2023-08-12T14:37:31;6.65;;;5.55;;
7108;SDS011;29079;41.930;25.558;2023-08-12T14:40:19;4.72;;;3.75;;
7108;SDS011;29079;41.930;25.558;2023-08-12T14:43:07;4.70;;;4.28;;
7108;SDS011;29079;41.930;25.558;2023-08-12T14:45:54;5.05;;;4.55;;
7108;SDS011;29079;41.930;25.558;2023-08-12T14:48:42;6.35;;;3.90;;
7108;SDS011;29079;41.930;25.558;2023-08-12T14:51:30;5.68;;;4.05;;
7108;SDS011;29079;41.930;25.558;2023-08-12T14:54:19;5.50;;;4.47;;
7108;SDS011;29079;41.930;25.558;2023-08-12T14:57:07;4.97;;;3.70;;
7108;SDS011;29079;41.930;25.558;2023-08-12T14:59:55;6.45;;;4.40;;
7108;SDS011;29079;41.930;25.558;2023-08-12T15:02:43;6.03;;;4.38;;
7108;SDS011;29079;41.930;25.558;2023-08-12T15:05:31;5.70;;;4.15;;
7108;SDS011;29079;41.930;25.558;2023-08-12T15:08:18;6.28;;;4.72;;
7108;SDS011;29079;41.930;25.558;2023-08-12T15:11:07;6.78;;;4.68;;
7108;SDS011;29079;41.930;25.558;2023-08-12T15:13:55;11.88;;;3.92;;
7108;SDS011;29079;41.930;25.558;2023-08-12T15:16:43;5.32;;;3.95;;
7108;SDS011;29079;41.930;25.558;2023-08-12T15:19:31;7.35;;;5.80;;
7108;SDS011;29079;41.930;25.558;2023-08-12T15:22:18;6.60;;;4.22;;
7108;SDS011;29079;41.930;25.558;2023-08-12T15:25:07;6.05;;;4.88;;
7108;SDS011;29079;41.930;25.558;2023-08-12T15:27:56;7.88;;;4.43;;
7108;SDS011;29079;41.930;25.558;2023-08-12T15:30:47;5.68;;;4.78;;
7108;SDS011;29079;41.930;25.558;2023-08-12T15:33:35;8.45;;;5.30;;
7108;SDS011;29079;41.930;25.558;2023-08-12T15:36:23;7.00;;;5.43;;
7108;SDS011;29079;41.930;25.558;2023-08-12T15:39:10;7.22;;;5.72;;
7108;SDS011;29079;41.930;25.558;2023-08-12T15:41:59;7.60;;;5.75;;
7108;SDS011;29079;41.930;25.558;2023-08-12T15:44:48;6.20;;;4.80;;
7108;SDS011;29079;41.930;25.558;2023-08-12T15:47:35;6.05;;;5.07;;
7108;SDS011;29079;41.930;25.558;2023-08-12T15:50:23;5.95;;;5.22;;
7108;SDS011;29079;41.930;25.558;2023-08-12T15:53:11;5.90;;;4.10;;
7108;SDS011;29079;41.930;25.558;2023-08-12T15:55:59;7.85;;;4.65;;
7108;SDS011;29079;41.930;25.558;2023-08-12T15:58:46;5.60;;;4.63;;
7108;SDS011;29079;41.930;25.558;2023-08-12T16:01:36;4.22;;;3.83;;
7108;SDS011;29079;41.930;25.558;2023-08-12T16:04:23;5.05;;;3.40;;
7108;SDS011;29079;41.930;25.558;2023-08-12T16:07:11;5.22;;;3.92;;
7108;SDS011;29079;41.930;25.558;2023-08-12T16:09:59;4.65;;;4.25;;
7108;SDS011;29079;41.930;25.558;2023-08-12T16:12:47;4.97;;;4.00;;
7108;SDS011;29079;41.930;25.558;2023-08-12T16:15:34;8.00;;;3.97;;
7108;SDS011;29079;41.930;25.558;2023-08-12T16:18:24;5.60;;;3.85;;
7108;SDS011;29079;41.930;25.558;2023-08-12T16:21:12;6.25;;;4.43;;
7108;SDS011;29079;41.930;25.558;2023-08-12T16:23:59;4.25;;;3.85;;
7108;SDS011;29079;41.930;25.558;2023-08-12T16:26:47;5.60;;;4.20;;
7108;SDS011;29079;41.930;25.558;2023-08-12T16:29:35;4.10;;;3.70;;
7108;SDS011;29079;41.930;25.558;2023-08-12T16:32:23;4.40;;;3.72;;
7108;SDS011;29079;41.930;25.558;2023-08-12T16:35:12;7.10;;;5.07;;
7108;SDS011;29079;41.930;25.558;2023-08-12T16:38:00;10.50;;;6.10;;
7108;SDS011;29079;41.930;25.558;2023-08-12T16:40:48;6.93;;;4.30;;
7108;SDS011;29079;41.930;25.558;2023-08-12T16:43:35;7.05;;;4.57;;
7108;SDS011;29079;41.930;25.558;2023-08-12T16:46:23;5.43;;;4.70;;
7108;SDS011;29079;41.930;25.558;2023-08-12T16:49:11;12.23;;;9.02;;
7108;SDS011;29079;41.930;25.558;2023-08-12T16:52:00;14.18;;;10.25;;
7108;SDS011;29079;41.930;25.558;2023-08-12T16:54:48;7.88;;;6.82;;